createdAt,value
2023-04-25T00:00:09.669Z,970.20
2023-04-25T00:00:59.164Z,970.30
2023-04-25T00:01:11.224Z,970.30
2023-04-25T00:01:41.616Z,970.20
2023-04-25T00:02:12.676Z,970.20
2023-04-25T00:03:15.685Z,970.30
2023-04-25T00:03:46.470Z,970.40
2023-04-25T00:04:17.104Z,970.40
2023-04-25T00:04:51.020Z,970.10
2023-04-25T00:05:21.243Z,970.10
2023-04-25T00:05:51.340Z,970.30
2023-04-25T00:06:21.796Z,970.30
2023-04-25T00:06:52.558Z,970.30
2023-04-25T00:07:23.235Z,970.30
2023-04-25T00:07:55.213Z,970.20
2023-04-25T00:13:55.183Z,970.30
2023-04-25T00:14:13.615Z,970.20
2023-04-25T00:14:39.458Z,970.30
2023-04-25T00:15:12.993Z,970.30
2023-04-25T00:15:42.028Z,970.30
2023-04-25T00:16:12.274Z,970.30
2023-04-25T00:16:45.137Z,970.00
2023-04-25T00:17:12.567Z,970.00
2023-04-25T00:17:43.207Z,970.40
2023-04-25T00:18:18.531Z,970.40
2023-04-25T00:18:45.156Z,970.30
2023-04-25T00:19:16.552Z,970.30
2023-04-25T00:19:48.367Z,970.20
2023-04-25T00:20:20.450Z,970.20
2023-04-25T00:20:51.918Z,970.20
2023-04-25T00:21:22.052Z,970.20
2023-04-25T00:21:57.958Z,970.10
2023-04-25T00:22:21.859Z,970.10
2023-04-25T00:22:52.847Z,970.20
2023-04-25T00:23:24.868Z,970.20
2023-04-25T00:23:55.180Z,970.30
2023-04-25T00:24:26.844Z,970.30
2023-04-25T00:24:59.803Z,970.20
2023-04-25T00:25:29.598Z,970.20
2023-04-25T00:26:01.084Z,970.00
2023-04-25T00:26:31.441Z,970.00
2023-04-25T00:27:04.278Z,970.30
2023-04-25T00:27:34.649Z,970.30
2023-04-25T00:28:03.960Z,970.10
2023-04-25T00:28:35.477Z,970.10
2023-04-25T00:29:05.044Z,970.10
2023-04-25T00:29:36.504Z,969.89
2023-04-25T00:30:09.854Z,969.89
2023-04-25T00:31:00.253Z,970.20
2023-04-25T00:31:11.014Z,970.20
2023-04-25T00:31:42.303Z,970.30
2023-04-25T00:32:15.554Z,970.30
2023-04-25T00:32:43.321Z,970.30
2023-04-25T00:33:13.286Z,970.30
2023-04-25T00:33:44.158Z,970.20
2023-04-25T00:34:15.055Z,970.20
2023-04-25T00:34:46.284Z,970.20
2023-04-25T00:35:18.462Z,970.20
2023-04-25T00:35:49.683Z,970.10
2023-04-25T00:36:21.615Z,970.10
2023-04-25T00:36:51.215Z,970.00
2023-04-25T00:37:22.078Z,970.00
2023-04-25T00:37:52.570Z,970.30
2023-04-25T00:38:23.228Z,970.30
2023-04-25T00:38:53.887Z,970.40
2023-04-25T00:39:24.815Z,970.40
2023-04-25T00:39:55.613Z,970.10
2023-04-25T00:40:27.457Z,970.10
2023-04-25T00:40:59.677Z,970.30
2023-04-25T00:41:30.563Z,970.30
2023-04-25T00:42:01.585Z,970.00
2023-04-25T00:42:31.866Z,970.00
2023-04-25T00:43:02.464Z,970.40
2023-04-25T00:43:32.708Z,970.40
2023-04-25T00:44:03.805Z,970.20
2023-04-25T00:44:35.204Z,970.20
2023-04-25T00:45:07.887Z,970.20
2023-04-25T00:45:37.270Z,970.10
2023-04-25T00:46:09.557Z,970.10
2023-04-25T00:46:41.672Z,970.10
2023-04-25T00:47:11.365Z,970.10
2023-04-25T00:47:41.766Z,970.10
2023-04-25T00:48:11.959Z,970.10
2023-04-25T00:48:42.744Z,970.20
2023-04-25T00:49:13.864Z,970.20
2023-04-25T00:49:44.788Z,970.10
2023-04-25T00:50:16.548Z,970.10
2023-04-25T00:50:48.243Z,970.40
2023-04-25T00:51:17.910Z,970.40
2023-04-25T00:51:51.268Z,970.20
2023-04-25T00:52:21.312Z,970.20
2023-04-25T00:52:51.613Z,970.10
2023-04-25T00:53:22.927Z,970.10
2023-04-25T00:53:53.371Z,970.30
2023-04-25T00:54:23.983Z,970.30
2023-04-25T00:54:54.930Z,970.10
2023-04-25T00:55:26.266Z,970.10
2023-04-25T00:55:57.221Z,970.20
2023-04-25T00:56:28.346Z,970.20
2023-04-25T00:57:01.479Z,970.10
2023-04-25T00:57:31.007Z,970.10
2023-04-25T00:58:01.912Z,970.10
2023-04-25T00:58:32.013Z,970.10
2023-04-25T00:59:03.652Z,970.20
2023-04-25T00:59:33.785Z,970.20
2023-04-25T01:00:05.536Z,970.10
2023-04-25T01:00:35.727Z,970.10
2023-04-25T01:01:12.063Z,970.10
2023-04-25T01:01:38.212Z,970.10
2023-04-25T01:02:13.226Z,970.10
2023-04-25T01:02:41.825Z,970.00
2023-04-25T01:03:11.938Z,970.00
2023-04-25T01:03:42.680Z,970.30
2023-04-25T01:04:13.403Z,970.30
2023-04-25T01:04:43.674Z,970.10
2023-04-25T01:05:15.649Z,970.10
2023-04-25T01:05:46.227Z,970.00
2023-04-25T01:06:17.473Z,970.00
2023-04-25T01:06:48.127Z,970.20
2023-04-25T01:07:20.995Z,970.20
2023-04-25T01:07:53.293Z,970.10
2023-04-25T01:08:21.660Z,970.10
2023-04-25T01:08:52.158Z,970.00
2023-04-25T01:09:23.241Z,970.00
2023-04-25T01:09:53.901Z,970.10
2023-04-25T01:10:52.134Z,970.10
2023-04-25T01:10:55.705Z,969.89
2023-04-25T01:11:27.970Z,969.89
2023-04-25T01:11:58.468Z,970.30
2023-04-25T01:12:30.900Z,970.30
2023-04-25T01:13:03.635Z,970.10
2023-04-25T01:13:32.275Z,970.10
2023-04-25T01:14:03.155Z,970.20
2023-04-25T01:14:33.417Z,970.20
2023-04-25T01:15:04.690Z,970.00
2023-04-25T01:15:34.996Z,970.00
2023-04-25T01:16:05.998Z,970.00
2023-04-25T01:16:37.648Z,970.10
2023-04-25T01:17:08.311Z,970.10
2023-04-25T01:17:39.852Z,970.00
2023-04-25T01:18:11.811Z,970.00
2023-04-25T01:18:42.135Z,970.00
2023-04-25T01:19:12.562Z,970.00
2023-04-25T01:19:43.441Z,969.89
2023-04-25T01:20:14.164Z,969.89
2023-04-25T01:20:45.218Z,970.00
2023-04-25T01:21:24.097Z,970.00
2023-04-25T01:21:47.618Z,970.10
2023-04-25T01:22:19.399Z,970.10
2023-04-25T01:22:51.628Z,970.10
2023-04-25T01:23:22.284Z,970.10
2023-04-25T01:23:52.495Z,970.10
2023-04-25T01:24:22.341Z,970.10
2023-04-25T01:24:54.083Z,970.00
2023-04-25T01:25:24.442Z,970.00
2023-04-25T01:25:57.056Z,969.89
2023-04-25T01:26:25.949Z,969.89
2023-04-25T01:26:57.084Z,970.30
2023-04-25T01:27:28.142Z,970.30
2023-04-25T01:28:16.389Z,970.20
2023-04-25T01:28:31.298Z,970.20
2023-04-25T01:29:01.998Z,970.10
2023-04-25T01:29:32.229Z,970.10
2023-04-25T01:30:04.288Z,970.00
2023-04-25T01:30:34.807Z,970.00
2023-04-25T01:31:05.722Z,969.89
2023-04-25T01:31:36.312Z,970.20
2023-04-25T01:32:07.893Z,970.20
2023-04-25T01:32:39.017Z,969.89
2023-04-25T01:33:10.730Z,969.89
2023-04-25T01:33:41.710Z,970.00
2023-04-25T01:34:11.704Z,970.00
2023-04-25T01:34:43.284Z,969.89
2023-04-25T01:35:12.917Z,969.89
2023-04-25T01:35:43.935Z,970.10
2023-04-25T01:36:15.387Z,970.10
2023-04-25T01:36:46.663Z,970.00
2023-04-25T01:37:34.317Z,970.00
2023-04-25T01:37:47.956Z,970.10
2023-04-25T01:38:20.334Z,970.10
2023-04-25T01:38:51.838Z,970.20
2023-04-25T01:39:22.503Z,970.20
2023-04-25T01:39:52.720Z,970.20
2023-04-25T01:40:23.353Z,970.20
2023-04-25T01:41:03.396Z,970.10
2023-04-25T01:41:25.372Z,970.10
2023-04-25T01:41:57.509Z,970.10
2023-04-25T01:42:28.067Z,970.10
2023-04-25T01:42:58.387Z,970.20
2023-04-25T01:43:30.848Z,970.20
2023-04-25T01:44:32.317Z,970.20
2023-04-25T01:45:05.573Z,970.10
2023-04-25T01:45:33.185Z,970.10
2023-04-25T01:46:23.330Z,970.10
2023-04-25T01:46:34.990Z,970.10
2023-04-25T01:47:06.348Z,970.20
2023-04-25T01:47:37.723Z,970.10
2023-04-25T01:48:08.318Z,970.10
2023-04-25T01:48:39.635Z,970.10
2023-04-25T01:49:11.708Z,970.10
2023-04-25T01:49:42.029Z,970.20
2023-04-25T01:50:13.328Z,970.20
2023-04-25T01:50:43.448Z,970.10
2023-04-25T01:51:14.207Z,970.10
2023-04-25T01:51:45.223Z,970.10
2023-04-25T01:52:16.650Z,970.10
2023-04-25T01:52:48.242Z,970.10
2023-04-25T01:53:18.644Z,970.10
2023-04-25T01:53:51.493Z,970.00
2023-04-25T01:54:22.503Z,970.00
2023-04-25T01:55:09.454Z,970.10
2023-04-25T01:55:24.210Z,970.10
2023-04-25T01:55:53.041Z,970.20
2023-04-25T01:56:24.532Z,970.20
2023-04-25T01:56:54.839Z,970.10
2023-04-25T01:57:26.433Z,970.10
2023-04-25T01:57:57.654Z,970.30
2023-04-25T01:58:28.046Z,970.30
2023-04-25T01:58:59.929Z,970.20
2023-04-25T02:00:03.721Z,970.20
2023-04-25T02:00:32.626Z,970.20
2023-04-25T02:01:03.727Z,970.10
2023-04-25T02:01:34.323Z,970.10
2023-04-25T02:02:06.332Z,970.30
2023-04-25T02:02:36.437Z,970.10
2023-04-25T02:03:07.528Z,970.10
2023-04-25T02:03:38.287Z,970.30
2023-04-25T02:04:31.073Z,970.30
2023-04-25T02:04:42.033Z,970.30
2023-04-25T02:05:13.408Z,970.30
2023-04-25T02:05:42.797Z,970.20
2023-04-25T02:06:29.988Z,970.20
2023-04-25T02:06:44.521Z,970.20
2023-04-25T02:07:15.161Z,970.20
2023-04-25T02:07:46.126Z,970.30
2023-04-25T02:08:17.543Z,970.30
2023-04-25T02:08:48.362Z,970.20
2023-04-25T02:09:21.045Z,970.20
2023-04-25T02:09:52.956Z,970.10
2023-04-25T02:21:08.190Z,970.10
2023-04-25T02:22:40.451Z,970.40
2023-04-25T02:22:54.963Z,970.10
2023-04-25T02:23:19.265Z,970.10
2023-04-25T02:23:50.754Z,970.30
2023-04-25T02:24:19.735Z,970.30
2023-04-25T02:24:49.420Z,970.10
2023-04-25T02:25:21.273Z,970.10
2023-04-25T02:25:51.814Z,970.20
2023-04-25T02:26:22.780Z,970.20
2023-04-25T02:26:53.301Z,970.50
2023-04-25T02:27:55.297Z,970.20
2023-04-25T02:28:28.321Z,970.20
2023-04-25T02:28:58.665Z,970.20
2023-04-25T02:29:29.113Z,970.20
2023-04-25T02:29:59.841Z,970.40
2023-04-25T02:30:32.601Z,970.40
2023-04-25T02:31:01.774Z,970.50
2023-04-25T02:31:32.419Z,970.50
2023-04-25T02:32:03.903Z,970.20
2023-04-25T02:32:35.243Z,970.20
2023-04-25T02:33:06.083Z,970.20
2023-04-25T02:33:39.681Z,970.20
2023-04-25T02:34:08.497Z,970.20
2023-04-25T02:34:40.591Z,970.20
2023-04-25T02:35:12.166Z,970.20
2023-04-25T02:35:40.645Z,970.20
2023-04-25T02:36:11.702Z,970.20
2023-04-25T02:36:43.527Z,970.20
2023-04-25T02:38:22.192Z,970.20
2023-04-25T02:38:48.634Z,970.10
2023-04-25T02:39:19.214Z,970.10
2023-04-25T02:39:49.449Z,970.30
2023-04-25T02:40:20.903Z,970.30
2023-04-25T02:40:50.656Z,970.20
2023-04-25T02:41:21.986Z,970.20
2023-04-25T02:41:52.333Z,970.30
2023-04-25T02:42:23.466Z,970.30
2023-04-25T02:42:54.353Z,970.20
2023-04-25T02:43:25.519Z,970.20
2023-04-25T02:43:56.926Z,970.40
2023-04-25T02:44:29.674Z,970.40
2023-04-25T02:44:59.064Z,970.10
2023-04-25T02:45:30.601Z,970.10
2023-04-25T02:46:01.102Z,970.30
2023-04-25T02:46:39.143Z,970.30
2023-04-25T02:47:02.695Z,970.00
2023-04-25T02:47:33.460Z,970.00
2023-04-25T02:48:04.784Z,970.20
2023-04-25T02:49:06.743Z,970.10
2023-04-25T02:49:54.743Z,970.20
2023-04-25T02:50:11.101Z,970.20
2023-04-25T02:50:40.090Z,970.10
2023-04-25T02:51:11.074Z,970.10
2023-04-25T02:51:41.282Z,970.10
2023-04-25T02:52:12.866Z,970.10
2023-04-25T02:52:43.270Z,970.00
2023-04-25T02:53:14.756Z,970.00
2023-04-25T02:53:45.593Z,970.10
2023-04-25T02:54:17.214Z,970.10
2023-04-25T02:54:49.295Z,970.00
2023-04-25T02:55:20.174Z,970.00
2023-04-25T02:55:49.958Z,970.20
2023-04-25T02:56:20.582Z,970.20
2023-04-25T02:57:22.628Z,970.20
2023-04-25T02:57:53.471Z,970.10
2023-04-25T02:58:24.341Z,970.10
2023-04-25T02:58:56.310Z,970.10
2023-04-25T02:59:26.701Z,970.10
2023-04-25T02:59:59.092Z,970.10
2023-04-25T03:00:29.736Z,970.10
2023-04-25T03:01:03.891Z,970.00
2023-04-25T03:01:31.517Z,970.00
2023-04-25T03:02:01.870Z,970.10
2023-04-25T03:03:04.032Z,970.30
2023-04-25T03:03:34.851Z,970.30
2023-04-25T03:04:05.332Z,970.20
2023-04-25T03:04:36.704Z,970.00
2023-04-25T03:05:11.113Z,970.00
2023-04-25T03:05:40.140Z,970.10
2023-04-25T03:06:10.406Z,970.10
2023-04-25T03:06:40.690Z,969.89
2023-04-25T03:07:11.675Z,969.89
2023-04-25T03:07:42.610Z,970.10
2023-04-25T03:08:13.386Z,970.10
2023-04-25T03:08:44.643Z,970.10
2023-04-25T03:09:15.526Z,970.10
2023-04-25T03:09:48.160Z,970.10
2023-04-25T03:10:19.691Z,970.10
2023-04-25T03:10:49.872Z,970.00
2023-04-25T03:11:20.539Z,970.00
2023-04-25T03:11:50.918Z,970.10
2023-04-25T03:12:22.028Z,970.10
2023-04-25T03:12:52.597Z,970.10
2023-04-25T03:13:24.552Z,970.10
2023-04-25T03:13:54.653Z,969.89
2023-04-25T03:14:56.577Z,970.00
2023-04-25T03:15:29.623Z,970.00
2023-04-25T03:15:59.996Z,969.89
2023-04-25T03:16:30.291Z,969.89
2023-04-25T03:17:00.851Z,970.30
2023-04-25T03:17:31.713Z,970.30
2023-04-25T03:18:02.628Z,970.40
2023-04-25T03:18:33.456Z,970.40
2023-04-25T03:19:35.898Z,970.10
2023-04-25T03:20:07.264Z,970.00
2023-04-25T03:21:10.733Z,970.20
2023-04-25T03:21:57.988Z,970.00
2023-04-25T03:22:11.362Z,970.00
2023-04-25T03:22:41.535Z,970.10
2023-04-25T03:23:12.544Z,970.10
2023-04-25T03:23:43.579Z,970.20
2023-04-25T03:24:14.657Z,970.20
2023-04-25T03:25:03.724Z,970.20
2023-04-25T03:25:16.788Z,970.20
2023-04-25T03:25:48.876Z,970.30
2023-04-25T03:26:20.036Z,970.30
2023-04-25T03:26:50.524Z,970.10
2023-04-25T03:27:20.914Z,970.10
2023-04-25T03:27:51.997Z,970.40
2023-04-25T03:28:22.579Z,970.40
2023-04-25T03:28:53.289Z,970.10
2023-04-25T03:29:24.698Z,970.10
2023-04-25T03:29:55.727Z,969.89
2023-04-25T03:30:31.045Z,969.89
2023-04-25T03:31:00.891Z,970.00
2023-04-25T03:31:30.483Z,970.00
2023-04-25T03:32:01.288Z,969.89
2023-04-25T03:32:31.395Z,969.89
2023-04-25T03:33:01.733Z,970.10
2023-04-25T03:33:51.118Z,970.00
2023-04-25T03:34:04.095Z,970.00
2023-04-25T03:34:34.484Z,970.00
2023-04-25T03:35:06.091Z,969.89
2023-04-25T03:35:37.167Z,970.20
2023-04-25T03:36:29.167Z,970.20
2023-04-25T03:36:41.901Z,970.30
2023-04-25T03:37:11.379Z,970.30
2023-04-25T03:37:41.569Z,970.00
2023-04-25T03:38:12.057Z,970.00
2023-04-25T03:38:42.776Z,970.10
2023-04-25T03:39:13.944Z,970.10
2023-04-25T03:39:44.650Z,970.10
2023-04-25T03:40:15.782Z,970.10
2023-04-25T03:40:46.830Z,970.30
2023-04-25T03:41:34.954Z,970.30
2023-04-25T03:41:51.525Z,970.10
2023-04-25T03:42:21.445Z,970.10
2023-04-25T03:42:52.143Z,970.10
2023-04-25T03:43:22.365Z,970.10
2023-04-25T03:43:52.977Z,970.20
2023-04-25T03:44:23.541Z,970.20
2023-04-25T03:44:54.693Z,970.20
2023-04-25T03:45:26.082Z,970.20
2023-04-25T03:45:56.606Z,970.10
2023-04-25T03:46:27.840Z,970.10
2023-04-25T03:47:01.108Z,970.00
2023-04-25T03:47:31.890Z,970.00
2023-04-25T03:48:02.283Z,970.00
2023-04-25T03:48:51.963Z,970.20
2023-04-25T03:49:03.297Z,970.20
2023-04-25T03:49:33.895Z,970.20
2023-04-25T03:50:04.770Z,970.10
2023-04-25T03:50:35.949Z,970.10
2023-04-25T03:51:39.385Z,970.20
2023-04-25T03:52:41.670Z,970.10
2023-04-25T03:53:12.567Z,970.10
2023-04-25T03:53:42.185Z,970.00
2023-04-25T03:54:12.815Z,970.00
2023-04-25T03:54:43.523Z,970.10
2023-04-25T03:55:14.331Z,970.10
2023-04-25T03:55:45.767Z,970.20
2023-04-25T03:56:16.949Z,970.20
2023-04-25T03:56:47.873Z,970.20
2023-04-25T03:57:35.983Z,970.20
2023-04-25T03:57:52.684Z,970.20
2023-04-25T03:58:22.577Z,970.20
2023-04-25T03:58:52.683Z,970.20
2023-04-25T03:59:23.761Z,970.20
2023-04-25T03:59:55.432Z,970.30
2023-04-25T04:03:28.819Z,970.30
2023-04-25T04:04:17.511Z,970.40
2023-04-25T04:05:17.267Z,970.30
2023-04-25T04:05:35.503Z,970.30
2023-04-25T04:06:06.170Z,970.30
2023-04-25T04:06:38.220Z,970.30
2023-04-25T04:07:20.464Z,970.30
2023-04-25T04:07:39.963Z,970.40
2023-04-25T04:08:11.727Z,970.40
2023-04-25T04:08:41.986Z,970.30
2023-04-25T04:09:12.774Z,970.30
2023-04-25T04:09:43.008Z,970.30
2023-04-25T04:10:14.467Z,970.30
2023-04-25T04:11:16.408Z,970.10
2023-04-25T04:11:49.711Z,970.40
2023-04-25T04:12:17.614Z,970.40
2023-04-25T04:12:49.075Z,970.30
2023-04-25T04:13:22.244Z,970.30
2023-04-25T04:13:51.787Z,970.20
2023-04-25T04:14:22.111Z,970.20
2023-04-25T04:14:52.831Z,970.30
2023-04-25T04:15:24.586Z,970.30
2023-04-25T04:15:54.765Z,970.20
2023-04-25T04:16:25.789Z,970.20
2023-04-25T04:16:56.453Z,970.30
2023-04-25T04:17:29.597Z,970.30
2023-04-25T04:18:00.301Z,970.30
2023-04-25T04:18:30.451Z,970.30
2023-04-25T04:19:01.053Z,970.30
2023-04-25T04:19:31.765Z,970.30
2023-04-25T04:20:03.722Z,970.20
2023-04-25T04:20:33.923Z,970.20
2023-04-25T04:21:05.205Z,970.40
2023-04-25T04:21:35.940Z,970.40
2023-04-25T04:22:08.279Z,970.50
2023-04-25T04:22:40.224Z,970.30
2023-04-25T04:23:10.998Z,970.30
2023-04-25T04:23:40.763Z,970.40
2023-04-25T04:24:12.231Z,970.40
2023-04-25T04:24:42.681Z,970.30
2023-04-25T04:25:13.758Z,970.30
2023-04-25T04:25:43.971Z,970.20
2023-04-25T04:26:14.980Z,970.20
2023-04-25T04:26:46.104Z,970.20
2023-04-25T04:27:18.938Z,970.20
2023-04-25T04:27:49.664Z,970.40
2023-04-25T04:28:20.272Z,970.40
2023-04-25T04:28:50.739Z,970.40
2023-04-25T04:29:21.351Z,970.40
2023-04-25T04:29:52.141Z,970.30
2023-04-25T04:30:25.852Z,970.30
2023-04-25T04:30:54.680Z,970.30
2023-04-25T04:31:25.105Z,970.30
2023-04-25T04:31:56.157Z,970.20
2023-04-25T04:32:27.426Z,970.20
2023-04-25T04:33:00.830Z,970.20
2023-04-25T04:33:30.965Z,970.20
2023-04-25T04:34:01.044Z,970.30
2023-04-25T04:34:32.174Z,970.30
2023-04-25T04:35:02.775Z,970.40
2023-04-25T04:35:34.430Z,970.40
2023-04-25T04:36:04.725Z,970.40
2023-04-25T04:36:35.042Z,970.40
2023-04-25T04:37:06.101Z,970.10
2023-04-25T04:37:36.639Z,970.20
2023-04-25T04:38:09.631Z,970.20
2023-04-25T04:38:41.911Z,970.30
2023-04-25T04:39:10.568Z,970.30
2023-04-25T04:39:41.669Z,970.30
2023-04-25T04:40:12.589Z,970.30
2023-04-25T04:40:43.270Z,970.20
2023-04-25T04:41:14.603Z,970.20
2023-04-25T04:42:16.082Z,970.40
2023-04-25T04:42:49.097Z,970.20
2023-04-25T04:43:20.194Z,970.20
2023-04-25T04:43:50.545Z,970.40
2023-04-25T04:44:20.702Z,970.40
2023-04-25T04:44:52.230Z,970.20
2023-04-25T04:45:23.779Z,970.20
2023-04-25T04:45:53.279Z,970.40
2023-04-25T04:46:23.876Z,970.40
2023-04-25T04:46:55.007Z,970.30
2023-04-25T04:47:25.945Z,970.30
2023-04-25T04:47:59.051Z,970.30
2023-04-25T04:48:28.801Z,970.30
2023-04-25T04:49:01.096Z,970.40
2023-04-25T04:49:31.458Z,970.40
2023-04-25T04:50:01.632Z,970.40
2023-04-25T04:50:34.101Z,970.40
2023-04-25T04:51:03.434Z,970.40
2023-04-25T04:51:34.129Z,970.40
2023-04-25T04:52:05.494Z,970.40
2023-04-25T04:52:36.252Z,970.40
2023-04-25T04:53:07.236Z,970.50
2023-04-25T04:53:39.983Z,970.40
2023-04-25T04:54:11.579Z,970.40
2023-04-25T04:54:41.643Z,970.20
2023-04-25T04:55:12.716Z,970.20
2023-04-25T04:55:42.395Z,970.40
2023-04-25T04:56:13.069Z,970.40
2023-04-25T04:56:45.033Z,970.40
2023-04-25T04:57:14.986Z,970.40
2023-04-25T04:57:46.312Z,970.30
2023-04-25T04:58:19.176Z,970.30
2023-04-25T04:58:49.907Z,970.40
2023-04-25T04:59:21.369Z,970.40
2023-04-25T04:59:50.507Z,970.50
2023-04-25T05:00:25.798Z,970.50
2023-04-25T05:00:52.544Z,970.50
2023-04-25T05:01:23.289Z,970.50
2023-04-25T05:01:54.036Z,970.40
2023-04-25T05:02:24.784Z,970.40
2023-04-25T05:02:56.095Z,970.40
2023-04-25T05:03:28.189Z,970.40
2023-04-25T05:04:00.709Z,970.30
2023-04-25T05:04:30.077Z,970.30
2023-04-25T05:05:00.554Z,970.30
2023-04-25T05:05:31.472Z,970.30
2023-04-25T05:06:02.216Z,970.30
2023-04-25T05:06:33.069Z,970.30
2023-04-25T05:07:05.886Z,970.60
2023-04-25T05:07:34.666Z,970.60
2023-04-25T05:08:06.125Z,970.71
2023-04-25T05:08:37.157Z,970.40
2023-04-25T05:09:09.684Z,970.40
2023-04-25T05:09:40.536Z,970.30
2023-04-25T05:10:11.672Z,970.30
2023-04-25T05:10:41.573Z,970.50
2023-04-25T05:11:14.902Z,970.50
2023-04-25T05:11:43.011Z,970.50
2023-04-25T05:12:32.375Z,970.50
2023-04-25T05:12:44.926Z,970.40
2023-04-25T05:13:16.539Z,970.40
2023-04-25T05:13:49.760Z,970.30
2023-04-25T05:14:43.123Z,970.30
2023-04-25T05:14:51.323Z,970.30
2023-04-25T05:15:31.761Z,970.30
2023-04-25T05:17:21.755Z,970.60
2023-04-25T05:17:25.082Z,970.60
2023-04-25T05:18:12.063Z,970.50
2023-04-25T05:18:25.943Z,970.50
2023-04-25T05:18:58.409Z,970.50
2023-04-25T05:19:30.005Z,970.50
2023-04-25T05:20:00.692Z,970.50
2023-04-25T05:20:31.753Z,970.50
2023-04-25T05:21:02.359Z,970.50
2023-04-25T05:21:32.623Z,970.50
2023-04-25T05:22:03.396Z,970.40
2023-04-25T05:22:34.038Z,970.40
2023-04-25T05:23:05.589Z,970.60
2023-04-25T05:23:36.267Z,970.60
2023-04-25T05:24:07.230Z,970.50
2023-04-25T05:24:39.657Z,970.50
2023-04-25T05:25:11.469Z,970.50
2023-04-25T05:25:41.796Z,970.40
2023-04-25T05:26:11.797Z,970.40
2023-04-25T05:26:42.887Z,970.50
2023-04-25T05:27:12.947Z,970.50
2023-04-25T05:27:46.497Z,970.50
2023-04-25T05:28:15.103Z,970.50
2023-04-25T05:28:45.919Z,970.50
2023-04-25T05:29:16.886Z,970.50
2023-04-25T05:29:49.731Z,970.50
2023-04-25T05:30:22.217Z,970.50
2023-04-25T05:30:51.825Z,970.60
2023-04-25T05:31:21.829Z,970.60
2023-04-25T05:31:58.801Z,970.50
2023-04-25T05:32:23.414Z,970.50
2023-04-25T05:32:54.417Z,970.60
2023-04-25T05:33:25.566Z,970.60
2023-04-25T05:33:56.327Z,970.50
2023-04-25T05:34:27.816Z,970.50
2023-04-25T05:35:01.398Z,970.60
2023-04-25T05:35:32.422Z,970.60
2023-04-25T05:36:01.709Z,970.50
2023-04-25T05:36:32.127Z,970.50
2023-04-25T05:37:33.236Z,970.40
2023-04-25T05:38:04.282Z,970.71
2023-04-25T05:38:35.255Z,970.71
2023-04-25T05:39:06.129Z,970.50
2023-04-25T05:39:37.404Z,970.71
2023-04-25T05:40:11.318Z,970.71
2023-04-25T05:40:41.237Z,970.50
2023-04-25T05:41:11.702Z,970.50
2023-04-25T05:41:42.269Z,970.50
2023-04-25T05:42:12.552Z,970.50
2023-04-25T05:42:43.808Z,970.60
2023-04-25T05:43:14.161Z,970.60
2023-04-25T05:43:45.117Z,970.50
2023-04-25T05:44:16.233Z,970.50
2023-04-25T05:44:46.907Z,970.81
2023-04-25T05:45:21.760Z,970.81
2023-04-25T05:45:56.912Z,970.60
2023-04-25T05:53:35.938Z,970.60
2023-04-25T05:54:37.006Z,970.71
2023-04-25T05:56:08.909Z,970.81
2023-04-25T05:56:44.369Z,970.81
2023-04-25T05:57:13.673Z,970.81
2023-04-25T05:57:43.311Z,970.81
2023-04-25T05:58:14.020Z,970.81
2023-04-25T05:58:44.471Z,970.81
2023-04-25T05:59:15.902Z,970.81
2023-04-25T05:59:46.567Z,970.71
2023-04-25T06:00:18.186Z,970.71
2023-04-25T06:01:33.012Z,970.71
2023-04-25T06:01:51.891Z,970.60
2023-04-25T06:02:21.381Z,970.60
2023-04-25T06:02:53.923Z,970.91
2023-04-25T06:03:24.792Z,970.91
2023-04-25T06:03:54.782Z,971.01
2023-04-25T06:04:26.246Z,971.01
2023-04-25T06:04:56.258Z,971.01
2023-04-25T06:05:27.630Z,971.01
2023-04-25T06:06:03.096Z,970.81
2023-04-25T06:06:30.524Z,970.81
2023-04-25T06:07:03.435Z,970.81
2023-04-25T06:07:33.681Z,970.81
2023-04-25T06:08:11.011Z,970.81
2023-04-25T06:08:33.726Z,970.81
2023-04-25T06:09:04.947Z,971.01
2023-04-25T06:09:35.604Z,971.01
2023-04-25T06:10:07.213Z,970.81
2023-04-25T06:10:37.436Z,970.71
2023-04-25T06:11:09.882Z,970.71
2023-04-25T06:11:56.670Z,970.81
2023-04-25T06:12:12.425Z,970.81
2023-04-25T06:12:43.682Z,970.91
2023-04-25T06:13:13.794Z,970.91
2023-04-25T06:13:43.903Z,970.91
2023-04-25T06:14:16.059Z,970.91
2023-04-25T06:14:45.502Z,970.91
2023-04-25T06:15:47.374Z,970.81
2023-04-25T06:16:19.100Z,970.81
2023-04-25T06:17:22.276Z,971.01
2023-04-25T06:17:53.506Z,971.11
2023-04-25T06:18:54.128Z,971.01
2023-04-25T06:19:25.282Z,971.01
2023-04-25T06:19:55.430Z,971.11
2023-04-25T06:20:44.260Z,970.91
2023-04-25T06:20:57.452Z,970.91
2023-04-25T06:21:28.793Z,970.91
2023-04-25T06:21:59.488Z,971.01
2023-04-25T06:22:31.794Z,971.01
2023-04-25T06:23:03.663Z,971.11
2023-04-25T06:24:06.417Z,970.81
2023-04-25T06:24:34.555Z,970.81
2023-04-25T06:25:07.089Z,971.11
2023-04-25T06:25:36.324Z,971.01
2023-04-25T06:26:08.068Z,971.01
2023-04-25T06:26:39.236Z,970.81
2023-04-25T06:27:10.227Z,970.81
2023-04-25T06:27:42.730Z,971.11
2023-04-25T06:28:13.746Z,971.11
2023-04-25T06:28:43.628Z,971.01
2023-04-25T06:29:15.007Z,971.01
2023-04-25T06:29:44.462Z,971.01
2023-04-25T06:30:16.892Z,971.01
2023-04-25T06:30:46.856Z,971.01
2023-04-25T06:31:18.644Z,971.01
2023-04-25T06:31:48.535Z,971.01
2023-04-25T06:32:19.904Z,971.01
2023-04-25T06:32:54.172Z,971.01
2023-04-25T06:33:26.086Z,971.01
2023-04-25T06:33:53.775Z,971.01
2023-04-25T06:34:25.124Z,971.01
2023-04-25T06:34:54.801Z,970.91
2023-04-25T06:35:26.491Z,970.91
2023-04-25T06:36:35.989Z,971.11
2023-04-25T06:36:58.476Z,971.21
2023-04-25T06:37:29.858Z,971.21
2023-04-25T06:38:01.576Z,971.01
2023-04-25T06:38:33.805Z,971.01
2023-04-25T06:39:34.544Z,971.01
2023-04-25T06:40:06.107Z,970.91
2023-04-25T06:40:36.396Z,970.91
2023-04-25T06:41:06.848Z,970.91
2023-04-25T06:41:37.510Z,970.91
2023-04-25T06:42:09.161Z,970.91
2023-04-25T06:42:39.930Z,971.01
2023-04-25T06:43:44.098Z,971.11
2023-04-25T06:44:14.956Z,971.11
2023-04-25T06:45:02.398Z,971.11
2023-04-25T06:45:15.368Z,971.11
2023-04-25T06:45:48.699Z,970.91
2023-04-25T06:46:17.338Z,970.91
2023-04-25T06:46:47.395Z,971.11
2023-04-25T06:47:19.239Z,971.11
2023-04-25T06:47:49.950Z,970.91
2023-04-25T06:48:20.759Z,970.91
2023-04-25T06:48:53.769Z,971.11
2023-04-25T06:49:24.685Z,971.11
2023-04-25T06:49:54.913Z,970.91
2023-04-25T06:50:25.823Z,970.91
2023-04-25T06:50:55.844Z,971.11
2023-04-25T06:51:26.508Z,971.11
2023-04-25T06:51:57.456Z,971.11
2023-04-25T06:52:29.304Z,971.11
2023-04-25T06:53:00.252Z,970.91
2023-04-25T06:53:30.997Z,970.91
2023-04-25T06:54:03.737Z,971.21
2023-04-25T06:54:34.502Z,971.21
2023-04-25T06:55:06.202Z,971.11
2023-04-25T06:55:35.799Z,971.11
2023-04-25T06:56:06.207Z,971.21
2023-04-25T06:56:36.243Z,971.28
2023-04-25T06:57:08.586Z,971.28
2023-04-25T06:57:39.792Z,971.28
2023-04-25T06:58:09.874Z,971.28
2023-04-25T06:58:41.146Z,971.28
2023-04-25T06:59:14.015Z,971.28
2023-04-25T06:59:45.020Z,971.01
2023-04-25T07:00:16.739Z,971.01
2023-04-25T07:01:15.937Z,971.21
2023-04-25T07:01:46.928Z,971.21
2023-04-25T07:02:21.410Z,971.21
2023-04-25T07:02:48.500Z,971.01
2023-04-25T07:03:19.949Z,971.01
2023-04-25T07:03:51.282Z,971.11
2023-04-25T07:04:23.435Z,971.11
2023-04-25T07:04:55.095Z,971.28
2023-04-25T07:05:25.658Z,971.28
2023-04-25T07:05:56.301Z,971.21
2023-04-25T07:06:27.230Z,971.21
2023-04-25T07:06:56.732Z,971.28
2023-04-25T07:07:27.397Z,971.28
2023-04-25T07:07:58.749Z,971.28
2023-04-25T07:08:29.689Z,971.28
2023-04-25T07:09:00.992Z,971.28
2023-04-25T07:09:33.730Z,971.28
2023-04-25T07:10:04.485Z,971.28